sensor_id;sensor_type;location;lat;lon;timestamp;temperature;humidity
65652;SHT30;52350;51.546;7.002;2022-08-07T00:00:30;13.20;80.20
65652;SHT30;52350;51.546;7.002;2022-08-07T00:02:56;13.17;80.27
65652;SHT30;52350;51.546;7.002;2022-08-07T00:05:22;13.09;80.43
65652;SHT30;52350;51.546;7.002;2022-08-07T00:07:48;13.03;80.69
65652;SHT30;52350;51.546;7.002;2022-08-07T00:10:13;13.00;80.87
65652;SHT30;52350;51.546;7.002;2022-08-07T00:12:39;12.90;81.01
65652;SHT30;52350;51.546;7.002;2022-08-07T00:15:05;12.89;81.24
65652;SHT30;52350;51.546;7.002;2022-08-07T00:17:31;12.83;81.28
65652;SHT30;52350;51.546;7.002;2022-08-07T00:19:57;12.73;81.55
65652;SHT30;52350;51.546;7.002;2022-08-07T00:22:22;12.71;81.69
65652;SHT30;52350;51.546;7.002;2022-08-07T00:24:47;12.66;81.83
65652;SHT30;52350;51.546;7.002;2022-08-07T00:27:13;12.66;82.03
65652;SHT30;52350;51.546;7.002;2022-08-07T00:29:38;12.62;82.08
65652;SHT30;52350;51.546;7.002;2022-08-07T00:32:05;12.62;82.04
65652;SHT30;52350;51.546;7.002;2022-08-07T00:34:31;12.65;82.05
65652;SHT30;52350;51.546;7.002;2022-08-07T00:36:56;12.62;82.19
65652;SHT30;52350;51.546;7.002;2022-08-07T00:39:22;12.51;82.51
65652;SHT30;52350;51.546;7.002;2022-08-07T00:41:48;12.48;82.75
65652;SHT30;52350;51.546;7.002;2022-08-07T00:44:14;12.48;82.83
65652;SHT30;52350;51.546;7.002;2022-08-07T00:46:40;12.45;82.83
65652;SHT30;52350;51.546;7.002;2022-08-07T00:49:05;12.37;82.75
65652;SHT30;52350;51.546;7.002;2022-08-07T00:51:30;12.37;82.97
65652;SHT30;52350;51.546;7.002;2022-08-07T00:53:56;12.35;83.02
65652;SHT30;52350;51.546;7.002;2022-08-07T00:56:22;12.30;83.02
65652;SHT30;52350;51.546;7.002;2022-08-07T00:58:48;12.28;83.20
65652;SHT30;52350;51.546;7.002;2022-08-07T01:01:13;12.27;83.37
65652;SHT30;52350;51.546;7.002;2022-08-07T01:03:39;12.27;83.45
65652;SHT30;52350;51.546;7.002;2022-08-07T01:06:04;12.28;83.56
65652;SHT30;52350;51.546;7.002;2022-08-07T01:08:30;12.33;83.47
65652;SHT30;52350;51.546;7.002;2022-08-07T01:10:56;12.31;83.42
65652;SHT30;52350;51.546;7.002;2022-08-07T01:13:21;12.27;83.36
65652;SHT30;52350;51.546;7.002;2022-08-07T01:15:48;12.24;83.35
65652;SHT30;52350;51.546;7.002;2022-08-07T01:18:15;12.18;83.63
65652;SHT30;52350;51.546;7.002;2022-08-07T01:20:42;12.17;83.76
65652;SHT30;52350;51.546;7.002;2022-08-07T01:23:10;12.17;83.63
65652;SHT30;52350;51.546;7.002;2022-08-07T01:25:37;12.14;83.37
65652;SHT30;52350;51.546;7.002;2022-08-07T01:28:04;12.12;83.51
65652;SHT30;52350;51.546;7.002;2022-08-07T01:30:30;12.09;83.80
65652;SHT30;52350;51.546;7.002;2022-08-07T01:32:57;12.03;83.99
65652;SHT30;52350;51.546;7.002;2022-08-07T01:35:23;11.99;83.96
65652;SHT30;52350;51.546;7.002;2022-08-07T01:37:49;11.97;84.17
65652;SHT30;52350;51.546;7.002;2022-08-07T01:40:15;12.09;84.27
65652;SHT30;52350;51.546;7.002;2022-08-07T01:42:45;12.04;84.28
65652;SHT30;52350;51.546;7.002;2022-08-07T01:45:11;12.01;84.20
65652;SHT30;52350;51.546;7.002;2022-08-07T01:47:36;11.96;83.86
65652;SHT30;52350;51.546;7.002;2022-08-07T01:50:02;11.89;84.21
65652;SHT30;52350;51.546;7.002;2022-08-07T01:52:29;11.87;84.37
65652;SHT30;52350;51.546;7.002;2022-08-07T01:54:57;11.85;84.59
65652;SHT30;52350;51.546;7.002;2022-08-07T01:57:26;11.83;84.59
65652;SHT30;52350;51.546;7.002;2022-08-07T02:00:04;11.86;84.89
65652;SHT30;52350;51.546;7.002;2022-08-07T02:02:42;11.81;84.91
65652;SHT30;52350;51.546;7.002;2022-08-07T02:05:24;11.86;84.97
65652;SHT30;52350;51.546;7.002;2022-08-07T02:07:57;11.86;84.21
65652;SHT30;52350;51.546;7.002;2022-08-07T02:10:27;11.79;84.42
65652;SHT30;52350;51.546;7.002;2022-08-07T02:12:56;11.73;84.59
65652;SHT30;52350;51.546;7.002;2022-08-07T02:15:24;11.69;84.92
65652;SHT30;52350;51.546;7.002;2022-08-07T02:17:52;11.68;85.06
65652;SHT30;52350;51.546;7.002;2022-08-07T02:20:20;11.64;85.18
65652;SHT30;52350;51.546;7.002;2022-08-07T02:22:47;11.68;85.45
65652;SHT30;52350;51.546;7.002;2022-08-07T02:25:18;11.65;85.18
65652;SHT30;52350;51.546;7.002;2022-08-07T02:27:45;11.69;85.08
65652;SHT30;52350;51.546;7.002;2022-08-07T02:30:12;11.73;85.12
65652;SHT30;52350;51.546;7.002;2022-08-07T02:32:37;11.69;84.97
65652;SHT30;52350;51.546;7.002;2022-08-07T02:35:04;11.65;85.04
65652;SHT30;52350;51.546;7.002;2022-08-07T02:37:35;11.58;85.13
65652;SHT30;52350;51.546;7.002;2022-08-07T02:40:05;11.58;85.33
65652;SHT30;52350;51.546;7.002;2022-08-07T02:42:32;11.61;85.16
65652;SHT30;52350;51.546;7.002;2022-08-07T02:44:58;11.59;85.06
65652;SHT30;52350;51.546;7.002;2022-08-07T02:47:25;11.55;85.18
65652;SHT30;52350;51.546;7.002;2022-08-07T02:49:51;11.50;85.23
65652;SHT30;52350;51.546;7.002;2022-08-07T02:52:28;11.50;85.25
65652;SHT30;52350;51.546;7.002;2022-08-07T02:54:57;11.48;85.34
65652;SHT30;52350;51.546;7.002;2022-08-07T02:57:26;11.42;85.46
65652;SHT30;52350;51.546;7.002;2022-08-07T02:59:53;11.42;85.52
65652;SHT30;52350;51.546;7.002;2022-08-07T03:02:21;11.37;85.52
65652;SHT30;52350;51.546;7.002;2022-08-07T03:04:47;11.37;85.56
65652;SHT30;52350;51.546;7.002;2022-08-07T03:07:17;11.34;85.75
65652;SHT30;52350;51.546;7.002;2022-08-07T03:09:43;11.31;85.86
65652;SHT30;52350;51.546;7.002;2022-08-07T03:12:09;11.34;85.92
65652;SHT30;52350;51.546;7.002;2022-08-07T03:14:36;11.32;85.79
65652;SHT30;52350;51.546;7.002;2022-08-07T03:17:03;11.31;85.88
65652;SHT30;52350;51.546;7.002;2022-08-07T03:19:30;11.30;85.68
65652;SHT30;52350;51.546;7.002;2022-08-07T03:21:56;11.27;85.79
65652;SHT30;52350;51.546;7.002;2022-08-07T03:24:22;11.30;85.76
65652;SHT30;52350;51.546;7.002;2022-08-07T03:26:48;11.30;85.52
65652;SHT30;52350;51.546;7.002;2022-08-07T03:29:16;11.24;85.56
65652;SHT30;52350;51.546;7.002;2022-08-07T03:31:42;11.21;85.60
65652;SHT30;52350;51.546;7.002;2022-08-07T03:34:11;11.19;85.74
65652;SHT30;52350;51.546;7.002;2022-08-07T03:36:38;11.17;85.82
65652;SHT30;52350;51.546;7.002;2022-08-07T03:39:06;11.13;85.96
65652;SHT30;52350;51.546;7.002;2022-08-07T03:41:34;11.14;85.95
65652;SHT30;52350;51.546;7.002;2022-08-07T03:44:01;11.09;86.02
65652;SHT30;52350;51.546;7.002;2022-08-07T03:46:27;11.14;86.06
65652;SHT30;52350;51.546;7.002;2022-08-07T03:48:54;11.06;85.90
65652;SHT30;52350;51.546;7.002;2022-08-07T03:51:20;11.07;86.12
65652;SHT30;52350;51.546;7.002;2022-08-07T03:53:47;11.03;86.27
65652;SHT30;52350;51.546;7.002;2022-08-07T03:56:15;11.03;86.41
65652;SHT30;52350;51.546;7.002;2022-08-07T03:58:44;11.02;86.41
65652;SHT30;52350;51.546;7.002;2022-08-07T04:01:10;11.00;86.52
65652;SHT30;52350;51.546;7.002;2022-08-07T04:03:37;10.99;86.45
65652;SHT30;52350;51.546;7.002;2022-08-07T04:06:06;11.02;86.63
65652;SHT30;52350;51.546;7.002;2022-08-07T04:08:33;11.03;86.55
65652;SHT30;52350;51.546;7.002;2022-08-07T04:10:59;10.97;86.56
65652;SHT30;52350;51.546;7.002;2022-08-07T04:13:25;10.97;86.63
65652;SHT30;52350;51.546;7.002;2022-08-07T04:15:51;10.96;86.67
65652;SHT30;52350;51.546;7.002;2022-08-07T04:18:16;10.95;86.58
65652;SHT30;52350;51.546;7.002;2022-08-07T04:20:42;10.97;86.57
65652;SHT30;52350;51.546;7.002;2022-08-07T04:23:07;10.96;86.54
65652;SHT30;52350;51.546;7.002;2022-08-07T04:25:34;10.96;86.62
65652;SHT30;52350;51.546;7.002;2022-08-07T04:28:07;10.95;86.61
65652;SHT30;52350;51.546;7.002;2022-08-07T04:30:34;10.99;86.55
65652;SHT30;52350;51.546;7.002;2022-08-07T04:33:04;11.03;86.53
65652;SHT30;52350;51.546;7.002;2022-08-07T04:35:32;10.97;86.56
65652;SHT30;52350;51.546;7.002;2022-08-07T04:37:58;10.97;86.70
65652;SHT30;52350;51.546;7.002;2022-08-07T04:40:23;11.02;86.86
65652;SHT30;52350;51.546;7.002;2022-08-07T04:42:49;11.03;86.97
65652;SHT30;52350;51.546;7.002;2022-08-07T04:45:14;11.07;87.10
65652;SHT30;52350;51.546;7.002;2022-08-07T04:50:38;11.19;87.01
65652;SHT30;52350;51.546;7.002;2022-08-07T04:53:16;11.27;86.96
65652;SHT30;52350;51.546;7.002;2022-08-07T04:55:52;11.35;86.99
65652;SHT30;52350;51.546;7.002;2022-08-07T04:58:51;11.41;86.97
65652;SHT30;52350;51.546;7.002;2022-08-07T05:09:19;11.64;86.80
65652;SHT30;52350;51.546;7.002;2022-08-07T05:11:50;11.69;86.91
65652;SHT30;52350;51.546;7.002;2022-08-07T05:14:19;11.73;86.92
65652;SHT30;52350;51.546;7.002;2022-08-07T05:16:58;11.82;86.92
65652;SHT30;52350;51.546;7.002;2022-08-07T05:19:26;11.87;86.89
65652;SHT30;52350;51.546;7.002;2022-08-07T05:21:59;11.96;86.89
65652;SHT30;52350;51.546;7.002;2022-08-07T05:24:27;12.06;86.87
65652;SHT30;52350;51.546;7.002;2022-08-07T05:26:55;12.12;87.02
65652;SHT30;52350;51.546;7.002;2022-08-07T05:29:23;12.21;86.80
65652;SHT30;52350;51.546;7.002;2022-08-07T05:31:50;12.30;86.51
65652;SHT30;52350;51.546;7.002;2022-08-07T05:34:16;12.42;86.33
65652;SHT30;52350;51.546;7.002;2022-08-07T05:36:47;12.59;85.98
65652;SHT30;52350;51.546;7.002;2022-08-07T05:39:15;12.71;85.70
65652;SHT30;52350;51.546;7.002;2022-08-07T05:41:43;12.80;85.56
65652;SHT30;52350;51.546;7.002;2022-08-07T05:44:11;12.92;85.49
65652;SHT30;52350;51.546;7.002;2022-08-07T05:46:37;12.99;85.58
65652;SHT30;52350;51.546;7.002;2022-08-07T05:49:07;13.07;85.51
65652;SHT30;52350;51.546;7.002;2022-08-07T05:51:34;13.10;85.35
65652;SHT30;52350;51.546;7.002;2022-08-07T05:54:00;13.18;85.34
65652;SHT30;52350;51.546;7.002;2022-08-07T05:56:26;13.21;85.24
65652;SHT30;52350;51.546;7.002;2022-08-07T05:58:53;13.33;85.20
65652;SHT30;52350;51.546;7.002;2022-08-07T06:01:19;13.41;85.14
65652;SHT30;52350;51.546;7.002;2022-08-07T06:03:47;13.50;85.01
65652;SHT30;52350;51.546;7.002;2022-08-07T06:06:17;13.58;84.79
65652;SHT30;52350;51.546;7.002;2022-08-07T06:08:44;13.68;84.19
65652;SHT30;52350;51.546;7.002;2022-08-07T06:11:11;13.78;83.97
65652;SHT30;52350;51.546;7.002;2022-08-07T06:13:37;13.85;83.70
65652;SHT30;52350;51.546;7.002;2022-08-07T06:16:05;13.91;83.53
65652;SHT30;52350;51.546;7.002;2022-08-07T06:18:32;14.02;82.60
65652;SHT30;52350;51.546;7.002;2022-08-07T06:21:01;14.14;82.42
65652;SHT30;52350;51.546;7.002;2022-08-07T06:23:29;14.33;81.52
65652;SHT30;52350;51.546;7.002;2022-08-07T06:25:55;14.51;79.74
65652;SHT30;52350;51.546;7.002;2022-08-07T06:28:22;14.68;78.91
65652;SHT30;52350;51.546;7.002;2022-08-07T06:30:48;14.92;78.08
65652;SHT30;52350;51.546;7.002;2022-08-07T06:33:13;15.13;76.58
65652;SHT30;52350;51.546;7.002;2022-08-07T06:35:39;15.31;75.23
65652;SHT30;52350;51.546;7.002;2022-08-07T06:38:05;15.54;74.85
65652;SHT30;52350;51.546;7.002;2022-08-07T06:40:36;15.82;74.19
65652;SHT30;52350;51.546;7.002;2022-08-07T06:43:07;16.14;71.51
65652;SHT30;52350;51.546;7.002;2022-08-07T06:45:35;16.45;71.30
65652;SHT30;52350;51.546;7.002;2022-08-07T06:48:01;16.76;67.62
65652;SHT30;52350;51.546;7.002;2022-08-07T06:50:27;17.13;66.31
65652;SHT30;52350;51.546;7.002;2022-08-07T06:52:54;17.49;65.93
65652;SHT30;52350;51.546;7.002;2022-08-07T06:55:23;17.78;63.82
65652;SHT30;52350;51.546;7.002;2022-08-07T06:57:52;18.07;63.86
65652;SHT30;52350;51.546;7.002;2022-08-07T07:00:23;18.34;64.48
65652;SHT30;52350;51.546;7.002;2022-08-07T07:02:50;18.58;62.23
65652;SHT30;52350;51.546;7.002;2022-08-07T07:05:18;18.77;60.30
65652;SHT30;52350;51.546;7.002;2022-08-07T07:07:45;18.96;59.32
65652;SHT30;52350;51.546;7.002;2022-08-07T07:10:11;19.13;58.59
65652;SHT30;52350;51.546;7.002;2022-08-07T07:17:52;19.68;58.61
65652;SHT30;52350;51.546;7.002;2022-08-07T07:20:24;19.85;57.62
65652;SHT30;52350;51.546;7.002;2022-08-07T07:22:56;19.98;57.25
65652;SHT30;52350;51.546;7.002;2022-08-07T07:25:22;20.18;57.66
65652;SHT30;52350;51.546;7.002;2022-08-07T07:27:55;20.32;55.13
65652;SHT30;52350;51.546;7.002;2022-08-07T07:30:37;20.52;54.47
65652;SHT30;52350;51.546;7.002;2022-08-07T07:33:06;20.68;53.34
65652;SHT30;52350;51.546;7.002;2022-08-07T07:35:35;20.83;53.93
65652;SHT30;52350;51.546;7.002;2022-08-07T07:38:02;20.97;53.23
65652;SHT30;52350;51.546;7.002;2022-08-07T07:40:31;21.10;52.86
65652;SHT30;52350;51.546;7.002;2022-08-07T07:42:59;21.24;51.36
65652;SHT30;52350;51.546;7.002;2022-08-07T07:45:29;21.35;52.03
65652;SHT30;52350;51.546;7.002;2022-08-07T07:47:56;21.51;54.30
65652;SHT30;52350;51.546;7.002;2022-08-07T07:50:23;21.65;52.74
65652;SHT30;52350;51.546;7.002;2022-08-07T07:52:51;21.67;51.14
65652;SHT30;52350;51.546;7.002;2022-08-07T07:55:18;21.79;52.43
65652;SHT30;52350;51.546;7.002;2022-08-07T07:57:46;21.93;52.77
65652;SHT30;52350;51.546;7.002;2022-08-07T08:00:13;22.14;52.06
65652;SHT30;52350;51.546;7.002;2022-08-07T08:02:39;22.35;50.36
65652;SHT30;52350;51.546;7.002;2022-08-07T08:05:09;22.45;49.35
65652;SHT30;52350;51.546;7.002;2022-08-07T08:07:36;22.49;48.71
65652;SHT30;52350;51.546;7.002;2022-08-07T08:10:04;22.54;49.02
65652;SHT30;52350;51.546;7.002;2022-08-07T08:12:31;22.65;48.81
65652;SHT30;52350;51.546;7.002;2022-08-07T08:14:58;22.76;49.14
65652;SHT30;52350;51.546;7.002;2022-08-07T08:17:24;22.92;49.12
65652;SHT30;52350;51.546;7.002;2022-08-07T08:19:53;23.04;49.99
65652;SHT30;52350;51.546;7.002;2022-08-07T08:25:23;23.34;46.39
65652;SHT30;52350;51.546;7.002;2022-08-07T08:28:10;23.63;46.06
65652;SHT30;52350;51.546;7.002;2022-08-07T08:30:39;23.76;45.62
65652;SHT30;52350;51.546;7.002;2022-08-07T08:33:07;23.95;44.60
65652;SHT30;52350;51.546;7.002;2022-08-07T08:35:40;24.04;43.31
65652;SHT30;52350;51.546;7.002;2022-08-07T08:38:07;24.17;45.63
65652;SHT30;52350;51.546;7.002;2022-08-07T08:40:40;24.25;43.61
65652;SHT30;52350;51.546;7.002;2022-08-07T08:43:19;24.37;43.48
65652;SHT30;52350;51.546;7.002;2022-08-07T08:45:56;24.41;42.05
65652;SHT30;52350;51.546;7.002;2022-08-07T08:48:42;24.40;38.49
65652;SHT30;52350;51.546;7.002;2022-08-07T08:51:24;24.32;40.30
65652;SHT30;52350;51.546;7.002;2022-08-07T08:53:56;24.34;39.11
65652;SHT30;52350;51.546;7.002;2022-08-07T08:56:38;24.30;39.36
65652;SHT30;52350;51.546;7.002;2022-08-07T09:09:51;25.20;37.45
65652;SHT30;52350;51.546;7.002;2022-08-07T09:17:38;25.45;38.30
65652;SHT30;52350;51.546;7.002;2022-08-07T09:23:06;25.55;37.10
65652;SHT30;52350;51.546;7.002;2022-08-07T09:25:46;25.47;37.51
65652;SHT30;52350;51.546;7.002;2022-08-07T09:28:30;25.52;37.63
65652;SHT30;52350;51.546;7.002;2022-08-07T09:31:15;25.64;36.93
65652;SHT30;52350;51.546;7.002;2022-08-07T09:39:48;25.86;38.59
65652;SHT30;52350;51.546;7.002;2022-08-07T09:45:19;26.17;35.09
65652;SHT30;52350;51.546;7.002;2022-08-07T09:51:02;26.41;35.61
65652;SHT30;52350;51.546;7.002;2022-08-07T09:53:40;26.49;34.87
65652;SHT30;52350;51.546;7.002;2022-08-07T10:02:30;26.72;33.51
65652;SHT30;52350;51.546;7.002;2022-08-07T10:05:21;26.61;33.45
65652;SHT30;52350;51.546;7.002;2022-08-07T10:13:16;26.09;33.88
65652;SHT30;52350;51.546;7.002;2022-08-07T10:15:53;26.31;33.38
65652;SHT30;52350;51.546;7.002;2022-08-07T10:24:20;26.78;32.26
65652;SHT30;52350;51.546;7.002;2022-08-07T10:30:14;27.03;33.02
65652;SHT30;52350;51.546;7.002;2022-08-07T10:44:31;27.31;32.96
65652;SHT30;52350;51.546;7.002;2022-08-07T10:49:48;27.33;30.64
65652;SHT30;52350;51.546;7.002;2022-08-07T10:52:24;27.17;32.20
65652;SHT30;52350;51.546;7.002;2022-08-07T10:54:58;27.35;31.05
65652;SHT30;52350;51.546;7.002;2022-08-07T10:57:55;27.55;33.19
65652;SHT30;52350;51.546;7.002;2022-08-07T11:00:45;27.88;31.84
65652;SHT30;52350;51.546;7.002;2022-08-07T11:08:57;28.17;30.81
65652;SHT30;52350;51.546;7.002;2022-08-07T11:11:38;28.30;34.15
65652;SHT30;52350;51.546;7.002;2022-08-07T11:14:12;28.24;29.81
65652;SHT30;52350;51.546;7.002;2022-08-07T11:16:46;28.31;31.03
65652;SHT30;52350;51.546;7.002;2022-08-07T11:19:17;28.48;30.01
65652;SHT30;52350;51.546;7.002;2022-08-07T11:28:03;29.00;30.71
65652;SHT30;52350;51.546;7.002;2022-08-07T11:30:46;29.19;30.26
65652;SHT30;52350;51.546;7.002;2022-08-07T11:33:27;29.46;29.64
65652;SHT30;52350;51.546;7.002;2022-08-07T11:42:09;30.89;27.61
65652;SHT30;52350;51.546;7.002;2022-08-07T11:44:52;31.62;25.75
65652;SHT30;52350;51.546;7.002;2022-08-07T11:47:49;32.34;27.64
65652;SHT30;52350;51.546;7.002;2022-08-07T11:56:34;35.72;23.65
65652;SHT30;52350;51.546;7.002;2022-08-07T12:02:15;37.07;20.85
65652;SHT30;52350;51.546;7.002;2022-08-07T12:07:37;37.76;19.67
65652;SHT30;52350;51.546;7.002;2022-08-07T12:10:12;37.58;20.80
65652;SHT30;52350;51.546;7.002;2022-08-07T12:12:45;38.24;19.94
65652;SHT30;52350;51.546;7.002;2022-08-07T12:15:20;38.29;20.31
65652;SHT30;52350;51.546;7.002;2022-08-07T12:17:48;38.66;20.06
65652;SHT30;52350;51.546;7.002;2022-08-07T12:20:22;38.83;19.34
65652;SHT30;52350;51.546;7.002;2022-08-07T12:25:59;38.35;20.59
65652;SHT30;52350;51.546;7.002;2022-08-07T12:31:05;38.32;19.25
65652;SHT30;52350;51.546;7.002;2022-08-07T12:33:37;37.86;19.97
65652;SHT30;52350;51.546;7.002;2022-08-07T12:36:05;38.07;19.54
65652;SHT30;52350;51.546;7.002;2022-08-07T12:38:32;38.24;18.83
65652;SHT30;52350;51.546;7.002;2022-08-07T12:40:59;38.08;20.93
65652;SHT30;52350;51.546;7.002;2022-08-07T12:43:28;37.72;20.34
65652;SHT30;52350;51.546;7.002;2022-08-07T12:46:16;37.59;20.62
65652;SHT30;52350;51.546;7.002;2022-08-07T12:51:45;37.62;20.40
65652;SHT30;52350;51.546;7.002;2022-08-07T12:56:54;37.58;20.64
65652;SHT30;52350;51.546;7.002;2022-08-07T12:59:28;37.77;20.47
65652;SHT30;52350;51.546;7.002;2022-08-07T13:21:47;36.25;21.96
65652;SHT30;52350;51.546;7.002;2022-08-07T13:27:15;35.19;23.22
65652;SHT30;52350;51.546;7.002;2022-08-07T13:29:56;34.42;24.63
65652;SHT30;52350;51.546;7.002;2022-08-07T13:32:32;33.53;24.27
65652;SHT30;52350;51.546;7.002;2022-08-07T13:40:38;29.93;28.25
65652;SHT30;52350;51.546;7.002;2022-08-07T13:43:13;29.30;29.16
65652;SHT30;52350;51.546;7.002;2022-08-07T13:45:40;29.10;30.29
65652;SHT30;52350;51.546;7.002;2022-08-07T13:48:09;28.86;30.98
65652;SHT30;52350;51.546;7.002;2022-08-07T13:50:38;28.74;31.42
65652;SHT30;52350;51.546;7.002;2022-08-07T13:53:06;28.62;30.03
65652;SHT30;52350;51.546;7.002;2022-08-07T13:55:33;28.47;31.34
65652;SHT30;52350;51.546;7.002;2022-08-07T13:58:04;28.36;31.34
65652;SHT30;52350;51.546;7.002;2022-08-07T14:00:51;28.10;32.02
65652;SHT30;52350;51.546;7.002;2022-08-07T14:03:19;27.92;31.29
65652;SHT30;52350;51.546;7.002;2022-08-07T14:05:46;27.65;31.57
65652;SHT30;52350;51.546;7.002;2022-08-07T14:08:16;27.35;31.42
65652;SHT30;52350;51.546;7.002;2022-08-07T14:10:44;27.09;31.70
65652;SHT30;52350;51.546;7.002;2022-08-07T14:13:15;26.93;32.55
65652;SHT30;52350;51.546;7.002;2022-08-07T14:15:49;26.98;32.77
65652;SHT30;52350;51.546;7.002;2022-08-07T14:18:19;26.86;32.47
65652;SHT30;52350;51.546;7.002;2022-08-07T14:20:58;26.83;33.12
65652;SHT30;52350;51.546;7.002;2022-08-07T14:23:28;26.79;32.81
65652;SHT30;52350;51.546;7.002;2022-08-07T14:25:59;26.67;33.18
65652;SHT30;52350;51.546;7.002;2022-08-07T14:28:29;26.76;33.28
65652;SHT30;52350;51.546;7.002;2022-08-07T14:30:56;26.72;33.48
65652;SHT30;52350;51.546;7.002;2022-08-07T14:33:23;26.73;32.98
65652;SHT30;52350;51.546;7.002;2022-08-07T14:35:56;26.61;33.29
65652;SHT30;52350;51.546;7.002;2022-08-07T14:38:24;26.56;33.97
65652;SHT30;52350;51.546;7.002;2022-08-07T14:40:58;26.47;34.70
65652;SHT30;52350;51.546;7.002;2022-08-07T14:43:26;26.48;35.60
65652;SHT30;52350;51.546;7.002;2022-08-07T14:45:57;26.44;35.04
65652;SHT30;52350;51.546;7.002;2022-08-07T14:48:29;26.37;35.18
65652;SHT30;52350;51.546;7.002;2022-08-07T14:51:00;26.20;34.58
65652;SHT30;52350;51.546;7.002;2022-08-07T14:53:29;26.21;34.61
65652;SHT30;52350;51.546;7.002;2022-08-07T14:56:01;26.06;35.78
65652;SHT30;52350;51.546;7.002;2022-08-07T14:58:34;25.96;34.24
65652;SHT30;52350;51.546;7.002;2022-08-07T15:01:04;25.75;34.19
65652;SHT30;52350;51.546;7.002;2022-08-07T15:03:31;25.55;34.84
65652;SHT30;52350;51.546;7.002;2022-08-07T15:05:58;25.47;35.92
65652;SHT30;52350;51.546;7.002;2022-08-07T15:08:26;25.30;36.94
65652;SHT30;52350;51.546;7.002;2022-08-07T15:10:57;25.37;35.72
65652;SHT30;52350;51.546;7.002;2022-08-07T15:13:25;25.42;36.88
65652;SHT30;52350;51.546;7.002;2022-08-07T15:15:56;25.35;36.15
65652;SHT30;52350;51.546;7.002;2022-08-07T15:18:34;25.49;36.17
65652;SHT30;52350;51.546;7.002;2022-08-07T15:21:03;25.44;36.68
65652;SHT30;52350;51.546;7.002;2022-08-07T15:23:32;25.38;35.84
65652;SHT30;52350;51.546;7.002;2022-08-07T15:26:01;25.30;36.67
65652;SHT30;52350;51.546;7.002;2022-08-07T15:28:29;25.30;36.84
65652;SHT30;52350;51.546;7.002;2022-08-07T15:31:01;25.33;37.85
65652;SHT30;52350;51.546;7.002;2022-08-07T15:33:28;25.28;37.13
65652;SHT30;52350;51.546;7.002;2022-08-07T15:35:55;25.27;36.97
65652;SHT30;52350;51.546;7.002;2022-08-07T15:38:24;25.23;36.95
65652;SHT30;52350;51.546;7.002;2022-08-07T15:40:52;25.48;35.51
65652;SHT30;52350;51.546;7.002;2022-08-07T15:43:24;25.39;36.73
65652;SHT30;52350;51.546;7.002;2022-08-07T15:45:52;25.30;37.34
65652;SHT30;52350;51.546;7.002;2022-08-07T15:48:30;25.23;37.82
65652;SHT30;52350;51.546;7.002;2022-08-07T15:51:09;25.14;37.47
65652;SHT30;52350;51.546;7.002;2022-08-07T15:53:38;25.04;37.62
65652;SHT30;52350;51.546;7.002;2022-08-07T15:56:11;24.93;38.13
65652;SHT30;52350;51.546;7.002;2022-08-07T15:58:57;24.86;38.48
65652;SHT30;52350;51.546;7.002;2022-08-07T16:01:31;24.85;36.88
65652;SHT30;52350;51.546;7.002;2022-08-07T16:04:08;24.83;37.65
65652;SHT30;52350;51.546;7.002;2022-08-07T16:06:49;25.03;37.14
65652;SHT30;52350;51.546;7.002;2022-08-07T16:11:57;25.19;37.32
65652;SHT30;52350;51.546;7.002;2022-08-07T16:14:31;25.10;37.15
65652;SHT30;52350;51.546;7.002;2022-08-07T16:17:15;25.06;37.20
65652;SHT30;52350;51.546;7.002;2022-08-07T16:24:54;24.90;37.38
65652;SHT30;52350;51.546;7.002;2022-08-07T16:27:46;24.80;39.63
65652;SHT30;52350;51.546;7.002;2022-08-07T16:30:22;24.82;37.78
65652;SHT30;52350;51.546;7.002;2022-08-07T16:32:49;24.72;38.99
65652;SHT30;52350;51.546;7.002;2022-08-07T16:35:43;24.66;38.83
65652;SHT30;52350;51.546;7.002;2022-08-07T16:46:56;24.45;40.64
65652;SHT30;52350;51.546;7.002;2022-08-07T16:52:19;24.41;40.62
65652;SHT30;52350;51.546;7.002;2022-08-07T16:54:57;24.37;40.87
65652;SHT30;52350;51.546;7.002;2022-08-07T17:00:50;24.30;40.98
65652;SHT30;52350;51.546;7.002;2022-08-07T17:03:54;24.34;40.80
65652;SHT30;52350;51.546;7.002;2022-08-07T17:09:17;24.23;41.13
65652;SHT30;52350;51.546;7.002;2022-08-07T17:11:59;24.20;41.76
65652;SHT30;52350;51.546;7.002;2022-08-07T17:14:36;24.10;42.15
65652;SHT30;52350;51.546;7.002;2022-08-07T17:17:18;24.17;41.87
65652;SHT30;52350;51.546;7.002;2022-08-07T17:19:55;24.14;41.00
65652;SHT30;52350;51.546;7.002;2022-08-07T17:22:29;24.16;42.16
65652;SHT30;52350;51.546;7.002;2022-08-07T17:30:29;23.92;41.90
65652;SHT30;52350;51.546;7.002;2022-08-07T17:35:38;23.79;42.06
65652;SHT30;52350;51.546;7.002;2022-08-07T17:39:02;23.75;42.21
65652;SHT30;52350;51.546;7.002;2022-08-07T17:41:12;23.72;43.03
65652;SHT30;52350;51.546;7.002;2022-08-07T17:43:47;23.72;42.37
65652;SHT30;52350;51.546;7.002;2022-08-07T17:46:21;23.65;42.74
65652;SHT30;52350;51.546;7.002;2022-08-07T17:52:09;23.54;43.91
65652;SHT30;52350;51.546;7.002;2022-08-07T17:54:49;23.42;43.34
65652;SHT30;52350;51.546;7.002;2022-08-07T18:00:06;23.23;43.64
65652;SHT30;52350;51.546;7.002;2022-08-07T18:02:46;23.11;43.40
65652;SHT30;52350;51.546;7.002;2022-08-07T18:05:29;23.04;43.35
65652;SHT30;52350;51.546;7.002;2022-08-07T18:13:19;22.90;45.28
65652;SHT30;52350;51.546;7.002;2022-08-07T18:16:01;22.89;44.93
65652;SHT30;52350;51.546;7.002;2022-08-07T18:18:31;22.88;44.67
65652;SHT30;52350;51.546;7.002;2022-08-07T18:26:02;22.66;45.74
65652;SHT30;52350;51.546;7.002;2022-08-07T18:28:54;22.58;46.29
65652;SHT30;52350;51.546;7.002;2022-08-07T18:31:32;22.52;46.06
65652;SHT30;52350;51.546;7.002;2022-08-07T18:36:49;22.35;47.23
65652;SHT30;52350;51.546;7.002;2022-08-07T18:39:29;22.28;47.29
65652;SHT30;52350;51.546;7.002;2022-08-07T18:44:48;22.16;47.70
65652;SHT30;52350;51.546;7.002;2022-08-07T18:50:46;21.96;49.71
65652;SHT30;52350;51.546;7.002;2022-08-07T18:56:45;21.73;49.94
65652;SHT30;52350;51.546;7.002;2022-08-07T19:07:56;21.34;52.72
65652;SHT30;52350;51.546;7.002;2022-08-07T19:10:40;21.21;51.89
65652;SHT30;52350;51.546;7.002;2022-08-07T19:16:00;21.00;52.63
65652;SHT30;52350;51.546;7.002;2022-08-07T19:23:46;20.79;53.09
65652;SHT30;52350;51.546;7.002;2022-08-07T19:26:16;20.71;53.48
65652;SHT30;52350;51.546;7.002;2022-08-07T19:28:48;20.65;53.90
65652;SHT30;52350;51.546;7.002;2022-08-07T19:34:18;20.49;53.81
65652;SHT30;52350;51.546;7.002;2022-08-07T19:36:47;20.38;54.37
65652;SHT30;52350;51.546;7.002;2022-08-07T19:39:19;20.34;54.69
65652;SHT30;52350;51.546;7.002;2022-08-07T19:42:19;20.21;55.21
65652;SHT30;52350;51.546;7.002;2022-08-07T19:44:45;20.20;55.26
65652;SHT30;52350;51.546;7.002;2022-08-07T19:47:13;20.09;55.45
65652;SHT30;52350;51.546;7.002;2022-08-07T19:49:45;20.04;56.13